sensor_id;sensor_type;location;lat;lon;timestamp;temperature;humidity
5196;DHT22;2617;51.006;12.436;2022-08-25T00:01:16;17.60;99.90
5196;DHT22;2617;51.006;12.436;2022-08-25T00:06:18;17.50;99.90
5196;DHT22;2617;51.006;12.436;2022-08-25T00:11:22;17.40;99.90
5196;DHT22;2617;51.006;12.436;2022-08-25T00:16:24;17.30;99.90
5196;DHT22;2617;51.006;12.436;2022-08-25T00:21:27;17.20;99.90
5196;DHT22;2617;51.006;12.436;2022-08-25T00:26:30;17.10;99.90
5196;DHT22;2617;51.006;12.436;2022-08-25T00:31:32;17.10;99.90
5196;DHT22;2617;51.006;12.436;2022-08-25T00:36:35;17.10;99.90
5196;DHT22;2617;51.006;12.436;2022-08-25T00:41:40;16.90;99.90
5196;DHT22;2617;51.006;12.436;2022-08-25T00:46:46;16.90;99.90
5196;DHT22;2617;51.006;12.436;2022-08-25T00:51:49;16.70;99.90
5196;DHT22;2617;51.006;12.436;2022-08-25T00:56:51;16.70;99.90
5196;DHT22;2617;51.006;12.436;2022-08-25T01:01:55;16.70;99.90
5196;DHT22;2617;51.006;12.436;2022-08-25T01:06:57;16.70;99.90
5196;DHT22;2617;51.006;12.436;2022-08-25T01:11:59;16.70;99.90
5196;DHT22;2617;51.006;12.436;2022-08-25T01:17:02;16.60;99.90
5196;DHT22;2617;51.006;12.436;2022-08-25T01:22:05;16.60;99.90
5196;DHT22;2617;51.006;12.436;2022-08-25T01:27:07;16.50;99.90
5196;DHT22;2617;51.006;12.436;2022-08-25T01:32:10;16.40;99.90
5196;DHT22;2617;51.006;12.436;2022-08-25T01:37:13;16.40;99.90
5196;DHT22;2617;51.006;12.436;2022-08-25T01:42:22;16.40;99.90
5196;DHT22;2617;51.006;12.436;2022-08-25T01:47:35;16.30;99.90
5196;DHT22;2617;51.006;12.436;2022-08-25T01:52:57;16.30;99.90
5196;DHT22;2617;51.006;12.436;2022-08-25T01:58:00;16.30;99.90
5196;DHT22;2617;51.006;12.436;2022-08-25T02:03:03;16.30;99.90
5196;DHT22;2617;51.006;12.436;2022-08-25T02:08:05;16.20;99.90
5196;DHT22;2617;51.006;12.436;2022-08-25T02:13:08;16.20;99.90
5196;DHT22;2617;51.006;12.436;2022-08-25T02:18:10;16.10;99.90
5196;DHT22;2617;51.006;12.436;2022-08-25T02:23:14;16.10;99.90
5196;DHT22;2617;51.006;12.436;2022-08-25T02:28:16;16.00;99.90
5196;DHT22;2617;51.006;12.436;2022-08-25T02:33:19;16.10;99.90
5196;DHT22;2617;51.006;12.436;2022-08-25T02:38:22;16.00;99.90
5196;DHT22;2617;51.006;12.436;2022-08-25T02:43:26;15.90;99.90
5196;DHT22;2617;51.006;12.436;2022-08-25T02:48:27;15.90;99.90
5196;DHT22;2617;51.006;12.436;2022-08-25T02:53:31;15.80;99.90
5196;DHT22;2617;51.006;12.436;2022-08-25T02:58:33;15.70;99.90
5196;DHT22;2617;51.006;12.436;2022-08-25T03:03:37;15.60;99.90
5196;DHT22;2617;51.006;12.436;2022-08-25T03:08:40;15.60;99.90
5196;DHT22;2617;51.006;12.436;2022-08-25T03:13:42;15.60;99.90
5196;DHT22;2617;51.006;12.436;2022-08-25T03:18:46;15.50;99.90
5196;DHT22;2617;51.006;12.436;2022-08-25T03:23:49;15.40;99.90
5196;DHT22;2617;51.006;12.436;2022-08-25T03:28:52;15.40;99.90
5196;DHT22;2617;51.006;12.436;2022-08-25T03:33:54;15.50;99.90
5196;DHT22;2617;51.006;12.436;2022-08-25T03:38:56;15.40;99.90
5196;DHT22;2617;51.006;12.436;2022-08-25T03:43:59;15.40;99.90
5196;DHT22;2617;51.006;12.436;2022-08-25T03:49:02;15.40;99.90
5196;DHT22;2617;51.006;12.436;2022-08-25T03:54:04;15.40;99.90
5196;DHT22;2617;51.006;12.436;2022-08-25T03:59:06;15.40;99.90
5196;DHT22;2617;51.006;12.436;2022-08-25T04:04:09;15.30;99.90
5196;DHT22;2617;51.006;12.436;2022-08-25T04:09:11;15.40;99.90
5196;DHT22;2617;51.006;12.436;2022-08-25T04:14:14;15.30;99.90
5196;DHT22;2617;51.006;12.436;2022-08-25T04:19:17;15.30;99.90
5196;DHT22;2617;51.006;12.436;2022-08-25T04:24:20;15.20;99.90
5196;DHT22;2617;51.006;12.436;2022-08-25T04:29:23;15.30;99.90
5196;DHT22;2617;51.006;12.436;2022-08-25T04:34:25;15.40;99.90
5196;DHT22;2617;51.006;12.436;2022-08-25T04:39:27;15.50;99.90
5196;DHT22;2617;51.006;12.436;2022-08-25T04:44:30;15.60;99.90
5196;DHT22;2617;51.006;12.436;2022-08-25T04:49:32;16.00;99.90
5196;DHT22;2617;51.006;12.436;2022-08-25T04:54:35;16.90;99.90
5196;DHT22;2617;51.006;12.436;2022-08-25T04:59:37;17.80;99.90
5196;DHT22;2617;51.006;12.436;2022-08-25T05:04:40;19.30;99.90
5196;DHT22;2617;51.006;12.436;2022-08-25T05:09:43;19.30;99.90
5196;DHT22;2617;51.006;12.436;2022-08-25T05:14:45;19.50;99.90
5196;DHT22;2617;51.006;12.436;2022-08-25T05:19:49;19.90;99.90
5196;DHT22;2617;51.006;12.436;2022-08-25T05:24:52;19.90;99.90
5196;DHT22;2617;51.006;12.436;2022-08-25T05:29:54;19.90;99.90
5196;DHT22;2617;51.006;12.436;2022-08-25T05:34:57;20.20;99.90
5196;DHT22;2617;51.006;12.436;2022-08-25T05:39:59;20.50;99.90
5196;DHT22;2617;51.006;12.436;2022-08-25T05:45:03;20.10;99.90
5196;DHT22;2617;51.006;12.436;2022-08-25T05:50:06;19.30;99.90
5196;DHT22;2617;51.006;12.436;2022-08-25T05:55:10;18.90;99.90
5196;DHT22;2617;51.006;12.436;2022-08-25T06:00:12;18.60;99.90
5196;DHT22;2617;51.006;12.436;2022-08-25T06:05:18;18.80;99.90
5196;DHT22;2617;51.006;12.436;2022-08-25T06:10:19;18.80;99.90
5196;DHT22;2617;51.006;12.436;2022-08-25T06:15:22;19.00;99.90
5196;DHT22;2617;51.006;12.436;2022-08-25T06:20:24;19.10;99.90
5196;DHT22;2617;51.006;12.436;2022-08-25T06:25:27;19.20;99.90
5196;DHT22;2617;51.006;12.436;2022-08-25T06:30:29;19.20;99.90
5196;DHT22;2617;51.006;12.436;2022-08-25T06:35:33;19.80;99.90
5196;DHT22;2617;51.006;12.436;2022-08-25T06:40:35;19.80;99.90
5196;DHT22;2617;51.006;12.436;2022-08-25T06:45:38;20.10;99.90
5196;DHT22;2617;51.006;12.436;2022-08-25T06:50:40;20.30;99.90
5196;DHT22;2617;51.006;12.436;2022-08-25T06:55:43;20.40;99.90
5196;DHT22;2617;51.006;12.436;2022-08-25T07:00:47;20.80;99.90
5196;DHT22;2617;51.006;12.436;2022-08-25T07:05:52;20.80;99.90
5196;DHT22;2617;51.006;12.436;2022-08-25T07:10:54;21.00;99.90
5196;DHT22;2617;51.006;12.436;2022-08-25T07:15:57;21.90;99.90
5196;DHT22;2617;51.006;12.436;2022-08-25T07:21:00;22.00;99.90
5196;DHT22;2617;51.006;12.436;2022-08-25T07:26:12;22.20;99.90
5196;DHT22;2617;51.006;12.436;2022-08-25T07:31:13;22.20;99.90
5196;DHT22;2617;51.006;12.436;2022-08-25T07:36:16;22.10;99.90
5196;DHT22;2617;51.006;12.436;2022-08-25T07:41:19;22.10;99.90
5196;DHT22;2617;51.006;12.436;2022-08-25T07:46:21;22.20;99.90
5196;DHT22;2617;51.006;12.436;2022-08-25T07:51:24;22.50;99.90
5196;DHT22;2617;51.006;12.436;2022-08-25T07:56:27;22.40;99.90
5196;DHT22;2617;51.006;12.436;2022-08-25T08:01:29;22.50;99.90
5196;DHT22;2617;51.006;12.436;2022-08-25T08:06:32;22.60;99.90
5196;DHT22;2617;51.006;12.436;2022-08-25T08:11:34;22.70;99.90
5196;DHT22;2617;51.006;12.436;2022-08-25T08:16:37;22.80;99.90
5196;DHT22;2617;51.006;12.436;2022-08-25T08:21:39;22.80;99.90
5196;DHT22;2617;51.006;12.436;2022-08-25T08:26:42;23.00;99.90
5196;DHT22;2617;51.006;12.436;2022-08-25T08:31:44;23.10;99.90
5196;DHT22;2617;51.006;12.436;2022-08-25T08:36:47;23.40;99.90
5196;DHT22;2617;51.006;12.436;2022-08-25T08:42:09;23.50;99.90
5196;DHT22;2617;51.006;12.436;2022-08-25T08:57:54;23.80;99.90
5196;DHT22;2617;51.006;12.436;2022-08-25T09:03:07;23.80;99.90
5196;DHT22;2617;51.006;12.436;2022-08-25T09:08:10;23.80;99.90
5196;DHT22;2617;51.006;12.436;2022-08-25T09:13:16;24.00;99.90
5196;DHT22;2617;51.006;12.436;2022-08-25T09:18:32;24.50;99.90
5196;DHT22;2617;51.006;12.436;2022-08-25T09:29:13;25.10;99.90
5196;DHT22;2617;51.006;12.436;2022-08-25T09:34:21;25.10;99.90
5196;DHT22;2617;51.006;12.436;2022-08-25T09:39:21;25.50;99.90
5196;DHT22;2617;51.006;12.436;2022-08-25T09:44:29;25.50;99.90
5196;DHT22;2617;51.006;12.436;2022-08-25T09:49:30;25.50;99.90
5196;DHT22;2617;51.006;12.436;2022-08-25T09:54:36;26.30;99.90
5196;DHT22;2617;51.006;12.436;2022-08-25T09:59:40;26.40;99.90
5196;DHT22;2617;51.006;12.436;2022-08-25T10:04:42;26.30;99.90
5196;DHT22;2617;51.006;12.436;2022-08-25T10:09:50;26.60;99.90
5196;DHT22;2617;51.006;12.436;2022-08-25T10:14:47;27.10;99.90
5196;DHT22;2617;51.006;12.436;2022-08-25T10:19:52;27.60;99.90
5196;DHT22;2617;51.006;12.436;2022-08-25T10:24:54;27.70;99.90
5196;DHT22;2617;51.006;12.436;2022-08-25T10:30:06;28.10;99.20
5196;DHT22;2617;51.006;12.436;2022-08-25T10:35:12;28.10;98.20
5196;DHT22;2617;51.006;12.436;2022-08-25T10:40:21;27.70;98.50
5196;DHT22;2617;51.006;12.436;2022-08-25T10:45:24;27.70;98.20
5196;DHT22;2617;51.006;12.436;2022-08-25T10:50:33;27.40;98.60
5196;DHT22;2617;51.006;12.436;2022-08-25T10:55:59;27.70;98.60
5196;DHT22;2617;51.006;12.436;2022-08-25T11:01:14;27.90;97.60
5196;DHT22;2617;51.006;12.436;2022-08-25T11:06:31;28.40;97.10
5196;DHT22;2617;51.006;12.436;2022-08-25T11:11:35;29.10;95.70
5196;DHT22;2617;51.006;12.436;2022-08-25T11:16:41;29.10;95.70
5196;DHT22;2617;51.006;12.436;2022-08-25T11:21:50;29.20;94.70
5196;DHT22;2617;51.006;12.436;2022-08-25T11:26:53;28.70;95.20
5196;DHT22;2617;51.006;12.436;2022-08-25T11:31:54;28.30;96.20
5196;DHT22;2617;51.006;12.436;2022-08-25T11:36:59;28.10;95.90
5196;DHT22;2617;51.006;12.436;2022-08-25T11:47:44;28.50;95.50
5196;DHT22;2617;51.006;12.436;2022-08-25T11:52:54;27.70;97.30
5196;DHT22;2617;51.006;12.436;2022-08-25T12:08:49;28.70;96.20
5196;DHT22;2617;51.006;12.436;2022-08-25T12:13:54;29.10;94.30
5196;DHT22;2617;51.006;12.436;2022-08-25T12:19:21;28.60;95.50
5196;DHT22;2617;51.006;12.436;2022-08-25T12:24:05;28.50;95.40
5196;DHT22;2617;51.006;12.436;2022-08-25T12:34:38;28.90;94.20
5196;DHT22;2617;51.006;12.436;2022-08-25T12:39:56;28.40;94.30
5196;DHT22;2617;51.006;12.436;2022-08-25T12:50:37;28.70;93.60
5196;DHT22;2617;51.006;12.436;2022-08-25T12:55:44;29.10;94.10
5196;DHT22;2617;51.006;12.436;2022-08-25T13:00:57;29.20;93.40
5196;DHT22;2617;51.006;12.436;2022-08-25T13:06:29;28.90;93.50
5196;DHT22;2617;51.006;12.436;2022-08-25T13:11:31;28.70;94.40
5196;DHT22;2617;51.006;12.436;2022-08-25T13:16:34;28.70;93.90
5196;DHT22;2617;51.006;12.436;2022-08-25T13:21:38;28.80;93.10
5196;DHT22;2617;51.006;12.436;2022-08-25T13:26:40;28.70;93.10
5196;DHT22;2617;51.006;12.436;2022-08-25T13:31:55;28.30;93.80
5196;DHT22;2617;51.006;12.436;2022-08-25T13:37:04;28.80;93.30
5196;DHT22;2617;51.006;12.436;2022-08-25T13:42:13;28.70;93.20
5196;DHT22;2617;51.006;12.436;2022-08-25T13:47:15;28.90;92.60
5196;DHT22;2617;51.006;12.436;2022-08-25T13:52:24;28.30;93.50
5196;DHT22;2617;51.006;12.436;2022-08-25T13:57:27;28.00;93.90
5196;DHT22;2617;51.006;12.436;2022-08-25T14:02:42;28.20;94.00
5196;DHT22;2617;51.006;12.436;2022-08-25T14:07:53;28.60;93.40
5196;DHT22;2617;51.006;12.436;2022-08-25T14:13:28;29.00;92.10
5196;DHT22;2617;51.006;12.436;2022-08-25T14:18:28;29.10;91.20
5196;DHT22;2617;51.006;12.436;2022-08-25T14:23:29;29.70;91.80
5196;DHT22;2617;51.006;12.436;2022-08-25T14:28:32;29.60;91.80
5196;DHT22;2617;51.006;12.436;2022-08-25T14:33:42;29.90;89.80
5196;DHT22;2617;51.006;12.436;2022-08-25T14:38:43;29.90;89.80
5196;DHT22;2617;51.006;12.436;2022-08-25T14:43:46;29.60;90.30
5196;DHT22;2617;51.006;12.436;2022-08-25T14:48:50;29.60;90.30
5196;DHT22;2617;51.006;12.436;2022-08-25T14:53:53;29.40;90.20
5196;DHT22;2617;51.006;12.436;2022-08-25T14:58:55;29.40;90.20
5196;DHT22;2617;51.006;12.436;2022-08-25T15:04:02;29.10;90.70
5196;DHT22;2617;51.006;12.436;2022-08-25T15:09:06;29.00;90.90
5196;DHT22;2617;51.006;12.436;2022-08-25T15:14:09;29.10;90.40
5196;DHT22;2617;51.006;12.436;2022-08-25T15:19:12;29.00;90.60
5196;DHT22;2617;51.006;12.436;2022-08-25T15:24:14;29.10;91.10
5196;DHT22;2617;51.006;12.436;2022-08-25T15:29:17;29.00;90.90
5196;DHT22;2617;51.006;12.436;2022-08-25T15:34:19;29.00;90.60
5196;DHT22;2617;51.006;12.436;2022-08-25T15:39:22;29.00;90.30
5196;DHT22;2617;51.006;12.436;2022-08-25T15:44:26;28.90;90.30
5196;DHT22;2617;51.006;12.436;2022-08-25T15:49:29;29.00;90.80
5196;DHT22;2617;51.006;12.436;2022-08-25T15:54:31;29.00;90.70
5196;DHT22;2617;51.006;12.436;2022-08-25T15:59:34;28.80;91.60
5196;DHT22;2617;51.006;12.436;2022-08-25T16:04:37;28.40;91.30
5196;DHT22;2617;51.006;12.436;2022-08-25T16:09:40;28.50;90.80
5196;DHT22;2617;51.006;12.436;2022-08-25T16:14:43;28.40;90.80
5196;DHT22;2617;51.006;12.436;2022-08-25T16:19:46;28.60;91.20
5196;DHT22;2617;51.006;12.436;2022-08-25T16:24:49;28.60;91.60
5196;DHT22;2617;51.006;12.436;2022-08-25T16:29:52;28.50;91.50
5196;DHT22;2617;51.006;12.436;2022-08-25T16:34:54;28.60;92.00
5196;DHT22;2617;51.006;12.436;2022-08-25T16:39:57;28.50;91.70
5196;DHT22;2617;51.006;12.436;2022-08-25T16:45:00;28.10;92.40
5196;DHT22;2617;51.006;12.436;2022-08-25T16:50:03;28.10;92.40
5196;DHT22;2617;51.006;12.436;2022-08-25T16:55:06;27.80;93.60
5196;DHT22;2617;51.006;12.436;2022-08-25T17:00:15;27.60;94.50
5196;DHT22;2617;51.006;12.436;2022-08-25T17:05:18;27.60;94.50
5196;DHT22;2617;51.006;12.436;2022-08-25T17:10:22;27.40;95.80
5196;DHT22;2617;51.006;12.436;2022-08-25T17:15:24;27.40;95.80
5196;DHT22;2617;51.006;12.436;2022-08-25T17:20:27;27.30;96.60
5196;DHT22;2617;51.006;12.436;2022-08-25T17:25:33;27.00;97.70
5196;DHT22;2617;51.006;12.436;2022-08-25T17:30:36;26.90;97.60
5196;DHT22;2617;51.006;12.436;2022-08-25T17:35:38;26.70;98.50
5196;DHT22;2617;51.006;12.436;2022-08-25T17:40:40;26.60;99.50
5196;DHT22;2617;51.006;12.436;2022-08-25T17:45:44;26.40;99.90
5196;DHT22;2617;51.006;12.436;2022-08-25T17:50:47;26.20;99.90
5196;DHT22;2617;51.006;12.436;2022-08-25T17:55:55;26.20;99.90
5196;DHT22;2617;51.006;12.436;2022-08-25T18:00:58;26.00;99.90
5196;DHT22;2617;51.006;12.436;2022-08-25T18:06:00;26.00;99.90
5196;DHT22;2617;51.006;12.436;2022-08-25T18:11:03;25.60;99.90
5196;DHT22;2617;51.006;12.436;2022-08-25T18:16:06;25.60;99.90
5196;DHT22;2617;51.006;12.436;2022-08-25T18:21:10;25.40;99.90
5196;DHT22;2617;51.006;12.436;2022-08-25T18:26:14;25.30;99.90
5196;DHT22;2617;51.006;12.436;2022-08-25T18:31:16;25.20;99.90
5196;DHT22;2617;51.006;12.436;2022-08-25T18:36:19;25.00;99.90
5196;DHT22;2617;51.006;12.436;2022-08-25T18:41:21;25.00;99.90
5196;DHT22;2617;51.006;12.436;2022-08-25T18:46:24;24.90;99.90
5196;DHT22;2617;51.006;12.436;2022-08-25T18:51:26;24.70;99.90
5196;DHT22;2617;51.006;12.436;2022-08-25T18:56:29;24.60;99.90
5196;DHT22;2617;51.006;12.436;2022-08-25T19:01:31;24.40;99.90
5196;DHT22;2617;51.006;12.436;2022-08-25T19:06:34;24.40;99.90
5196;DHT22;2617;51.006;12.436;2022-08-25T19:11:36;24.30;99.90
5196;DHT22;2617;51.006;12.436;2022-08-25T19:16:39;24.20;99.90
5196;DHT22;2617;51.006;12.436;2022-08-25T19:21:42;24.20;99.90
5196;DHT22;2617;51.006;12.436;2022-08-25T19:26:45;24.10;99.90
5196;DHT22;2617;51.006;12.436;2022-08-25T19:31:48;24.00;99.90
5196;DHT22;2617;51.006;12.436;2022-08-25T19:36:50;24.00;99.90
5196;DHT22;2617;51.006;12.436;2022-08-25T19:41:54;23.80;99.90
5196;DHT22;2617;51.006;12.436;2022-08-25T19:46:56;23.80;99.90
5196;DHT22;2617;51.006;12.436;2022-08-25T19:52:00;23.70;99.90
5196;DHT22;2617;51.006;12.436;2022-08-25T19:57:03;23.70;99.90
5196;DHT22;2617;51.006;12.436;2022-08-25T20:02:06;23.60;99.90
5196;DHT22;2617;51.006;12.436;2022-08-25T20:07:09;23.40;99.90
5196;DHT22;2617;51.006;12.436;2022-08-25T20:12:12;23.30;99.90
5196;DHT22;2617;51.006;12.436;2022-08-25T20:17:15;23.20;99.90
5196;DHT22;2617;51.006;12.436;2022-08-25T20:22:18;23.20;99.90
5196;DHT22;2617;51.006;12.436;2022-08-25T20:27:23;23.10;99.90
5196;DHT22;2617;51.006;12.436;2022-08-25T20:32:23;23.10;99.90
5196;DHT22;2617;51.006;12.436;2022-08-25T20:37:26;22.90;99.90
5196;DHT22;2617;51.006;12.436;2022-08-25T20:42:29;22.80;99.90
5196;DHT22;2617;51.006;12.436;2022-08-25T20:47:31;22.80;99.90
5196;DHT22;2617;51.006;12.436;2022-08-25T20:52:34;22.70;99.90
5196;DHT22;2617;51.006;12.436;2022-08-25T20:57:36;22.60;99.90
5196;DHT22;2617;51.006;12.436;2022-08-25T21:02:38;22.50;99.90
5196;DHT22;2617;51.006;12.436;2022-08-25T21:07:41;22.40;99.90
5196;DHT22;2617;51.006;12.436;2022-08-25T21:12:43;22.30;99.90
5196;DHT22;2617;51.006;12.436;2022-08-25T21:17:48;22.20;99.90
5196;DHT22;2617;51.006;12.436;2022-08-25T21:22:51;22.10;99.90
5196;DHT22;2617;51.006;12.436;2022-08-25T21:27:54;22.10;99.90
5196;DHT22;2617;51.006;12.436;2022-08-25T21:32:56;22.10;99.90
5196;DHT22;2617;51.006;12.436;2022-08-25T21:37:59;22.00;99.90
5196;DHT22;2617;51.006;12.436;2022-08-25T21:43:02;21.90;99.90
5196;DHT22;2617;51.006;12.436;2022-08-25T21:48:05;21.90;99.90
5196;DHT22;2617;51.006;12.436;2022-08-25T21:53:10;21.90;99.90
5196;DHT22;2617;51.006;12.436;2022-08-25T21:58:13;21.90;99.90
5196;DHT22;2617;51.006;12.436;2022-08-25T22:03:16;21.80;99.90
5196;DHT22;2617;51.006;12.436;2022-08-25T22:08:19;21.70;99.90
5196;DHT22;2617;51.006;12.436;2022-08-25T22:13:22;21.70;99.90
5196;DHT22;2617;51.006;12.436;2022-08-25T22:18:25;21.60;99.90
5196;DHT22;2617;51.006;12.436;2022-08-25T22:23:28;21.50;99.90
5196;DHT22;2617;51.006;12.436;2022-08-25T22:28:31;21.50;99.90
5196;DHT22;2617;51.006;12.436;2022-08-25T22:33:34;21.40;99.90
5196;DHT22;2617;51.006;12.436;2022-08-25T22:38:37;21.10;99.90
5196;DHT22;2617;51.006;12.436;2022-08-25T22:43:40;21.10;99.90
5196;DHT22;2617;51.006;12.436;2022-08-25T22:48:42;21.10;99.90
5196;DHT22;2617;51.006;12.436;2022-08-25T22:53:45;21.10;99.90
5196;DHT22;2617;51.006;12.436;2022-08-25T22:58:47;21.10;99.90
5196;DHT22;2617;51.006;12.436;2022-08-25T23:03:49;21.10;99.90
5196;DHT22;2617;51.006;12.436;2022-08-25T23:08:52;21.00;99.90
5196;DHT22;2617;51.006;12.436;2022-08-25T23:13:55;21.00;99.90
5196;DHT22;2617;51.006;12.436;2022-08-25T23:18:58;20.90;99.90
5196;DHT22;2617;51.006;12.436;2022-08-25T23:24:01;20.90;99.90
5196;DHT22;2617;51.006;12.436;2022-08-25T23:29:03;20.90;99.90
5196;DHT22;2617;51.006;12.436;2022-08-25T23:34:06;20.80;99.90
5196;DHT22;2617;51.006;12.436;2022-08-25T23:39:08;20.70;99.90
5196;DHT22;2617;51.006;12.436;2022-08-25T23:44:11;20.30;99.90
5196;DHT22;2617;51.006;12.436;2022-08-25T23:49:15;20.30;99.90
5196;DHT22;2617;51.006;12.436;2022-08-25T23:54:18;20.20;99.90
5196;DHT22;2617;51.006;12.436;2022-08-25T23:59:20;20.20;99.90
